Time;durP1;ratioP1;P1;durP2;ratioP2;P2;SDS_P1;SDS_P2;PMS_P1;PMS_P2;Temp;Humidity;BMP_temperature;BMP_pressure;BME280_temperature;BME280_humidity;BME280_pressure;Samples;Min_cycle;Max_cycle;Signal;HPM_P1;HPM_P2
2022/02/21 00:00:37;;;;;;;2.30;0.80;;;8.90;94.80;;;;;;5119959;28;20458;-46
2022/02/21 00:03:02;;;;;;;3.70;1.03;;;8.90;94.50;;;;;;5118854;28;20702;-46
2022/02/21 00:05:28;;;;;;;3.10;1.00;;;8.90;94.50;;;;;;5119494;28;20527;-46
2022/02/21 00:07:54;;;;;;;1.90;0.93;;;8.90;94.40;;;;;;5117663;28;20188;-46
2022/02/21 00:10:20;;;;;;;2.30;1.30;;;8.90;94.40;;;;;;5119049;28;20466;-45
2022/02/21 00:12:46;;;;;;;2.50;0.90;;;8.90;94.40;;;;;;5101354;28;20433;-45
2022/02/21 00:15:17;;;;;;;3.30;1.47;;;8.90;94.40;;;;;;5121239;28;20180;-45
2022/02/21 00:17:43;;;;;;;2.63;1.30;;;8.90;94.30;;;;;;5118900;28;20413;-46
2022/02/21 00:20:10;;;;;;;5.90;1.87;;;9.00;94.10;;;;;;5119749;28;20497;-46
2022/02/21 00:22:35;;;;;;;1.80;1.07;;;8.90;94.20;;;;;;5118234;28;20410;-46
2022/02/21 00:25:01;;;;;;;2.83;0.90;;;9.00;94.10;;;;;;5119090;28;20566;-46
2022/02/21 00:27:27;;;;;;;2.83;1.10;;;9.00;94.10;;;;;;5119818;28;20642;-46
2022/02/21 00:29:52;;;;;;;2.33;0.97;;;9.00;94.00;;;;;;5120615;28;20367;-46
2022/02/21 00:32:18;;;;;;;3.53;1.00;;;9.00;93.90;;;;;;5120565;28;20292;-46
2022/02/21 00:34:44;;;;;;;3.43;1.50;;;9.00;93.80;;;;;;5119553;28;20192;-46
2022/02/21 00:37:09;;;;;;;3.90;1.53;;;9.00;93.90;;;;;;5120902;28;20195;-46
2022/02/21 00:39:35;;;;;;;2.07;0.93;;;9.10;93.90;;;;;;5119080;28;20250;-46
2022/02/21 00:42:01;;;;;;;3.20;1.47;;;9.10;93.90;;;;;;5119685;28;20183;-46
2022/02/21 00:44:27;;;;;;;4.37;1.50;;;9.00;94.10;;;;;;5100895;28;20430;-46
2022/02/21 00:46:54;;;;;;;9.27;1.27;;;9.00;94.30;;;;;;5120115;28;20566;-46
2022/02/21 00:49:20;;;;;;;3.87;1.17;;;9.00;94.50;;;;;;5118261;28;20430;-46
2022/02/21 00:51:45;;;;;;;4.93;1.87;;;9.00;94.60;;;;;;5119726;28;20480;-46
2022/02/21 00:54:11;;;;;;;4.90;1.20;;;9.00;94.60;;;;;;5118854;28;20202;-45
2022/02/21 00:56:36;;;;;;;3.40;1.20;;;8.90;94.70;;;;;;5102814;28;20192;-46
2022/02/21 00:59:02;;;;;;;5.93;1.87;;;8.90;95.10;;;;;;5118092;28;20223;-46
2022/02/21 01:01:27;;;;;;;7.30;1.73;;;8.80;95.60;;;;;;5120289;28;20193;-45
2022/02/21 01:03:53;;;;;;;2.27;1.37;;;8.70;96.10;;;;;;5118905;28;20382;-46
2022/02/21 01:06:19;;;;;;;3.83;1.23;;;8.70;96.40;;;;;;5119656;28;20286;-45
2022/02/21 01:08:45;;;;;;;4.40;1.70;;;8.60;96.60;;;;;;5119784;28;20199;-46
2022/02/21 01:11:14;;;;;;;3.13;1.30;;;8.60;96.90;;;;;;5117778;28;20185;-46
2022/02/21 01:13:40;;;;;;;2.20;1.00;;;8.50;97.20;;;;;;5119884;28;20785;-46
2022/02/21 01:16:06;;;;;;;2.37;1.10;;;8.50;97.20;;;;;;5118095;28;20433;-46
2022/02/21 01:18:32;;;;;;;2.80;1.40;;;8.50;97.40;;;;;;5119758;28;20628;-43
2022/02/21 01:20:58;;;;;;;4.60;1.40;;;8.50;97.40;;;;;;5118241;28;20422;-43
2022/02/21 01:23:23;;;;;;;3.70;1.23;;;8.60;97.50;;;;;;5119551;28;20406;-44
2022/02/21 01:25:49;;;;;;;3.80;1.53;;;8.70;97.20;;;;;;5118154;28;20454;-45
2022/02/21 01:28:15;;;;;;;3.73;1.50;;;8.60;97.00;;;;;;5119320;28;20183;-45
2022/02/21 01:30:41;;;;;;;2.80;1.20;;;8.50;97.40;;;;;;5083893;28;20426;-44
2022/02/21 01:33:06;;;;;;;4.17;1.37;;;8.40;97.80;;;;;;5119117;28;20232;-44
2022/02/21 01:35:32;;;;;;;5.30;1.40;;;8.30;98.00;;;;;;5117655;28;20181;-44
2022/02/21 01:37:58;;;;;;;2.63;1.30;;;8.30;98.40;;;;;;5117798;28;20173;-44
2022/02/21 01:40:23;;;;;;;2.60;1.17;;;8.30;98.50;;;;;;5098424;28;20600;-44
2022/02/21 01:42:49;;;;;;;2.87;1.27;;;8.20;98.60;;;;;;5116920;28;20562;-44
2022/02/21 01:45:15;;;;;;;3.27;1.10;;;8.30;98.30;;;;;;5116250;28;20180;-44
2022/02/21 01:47:40;;;;;;;6.57;1.30;;;8.20;98.20;;;;;;5119426;28;20531;-45
2022/02/21 01:50:06;;;;;;;2.27;0.80;;;8.30;98.00;;;;;;5117122;28;20184;-45
2022/02/21 01:52:32;;;;;;;2.33;0.83;;;8.30;97.70;;;;;;5101350;28;20196;-45
2022/02/21 01:54:58;;;;;;;1.97;0.87;;;8.30;97.70;;;;;;5118188;28;20441;-45
2022/02/21 01:57:25;;;;;;;2.20;1.10;;;8.30;97.70;;;;;;5118553;28;20693;-45
2022/02/21 01:59:51;;;;;;;2.93;0.80;;;8.30;97.60;;;;;;5117276;28;20551;-45
2022/02/21 02:02:17;;;;;;;4.40;0.80;;;8.30;97.60;;;;;;5118563;28;20508;-45
2022/02/21 02:04:42;;;;;;;4.70;1.27;;;8.30;97.30;;;;;;5117644;28;20184;-45
2022/02/21 02:07:11;;;;;;;3.27;0.90;;;8.30;97.20;;;;;;5118981;28;20172;-45
2022/02/21 02:09:37;;;;;;;3.23;1.20;;;8.30;97.20;;;;;;5116817;28;20475;-45
2022/02/21 02:12:04;;;;;;;2.30;0.83;;;8.30;97.20;;;;;;5118444;28;20417;-45
2022/02/21 02:14:37;;;;;;;2.83;1.03;;;8.30;97.30;;;;;;5117019;28;20708;-45
2022/02/21 02:17:14;;;;;;;2.50;1.00;;;8.30;97.30;;;;;;5118845;28;20414;-45
2022/02/21 02:19:41;;;;;;;2.00;1.03;;;8.30;97.40;;;;;;5117404;28;20977;-45
2022/02/21 02:22:18;;;;;;;1.97;0.90;;;8.30;97.40;;;;;;5118906;28;20509;-45
2022/02/21 02:24:51;;;;;;;2.40;1.00;;;8.30;97.40;;;;;;5117213;28;20413;-45
2022/02/21 02:27:18;;;;;;;1.60;0.83;;;8.30;97.50;;;;;;5118514;28;20412;-45
2022/02/21 02:29:45;;;;;;;2.73;0.93;;;8.30;97.70;;;;;;5116864;28;20411;-44
2022/02/21 02:32:11;;;;;;;1.43;0.80;;;8.30;97.70;;;;;;5118516;28;20461;-45
2022/02/21 02:34:39;;;;;;;1.83;0.90;;;8.30;97.80;;;;;;5116940;28;20422;-45
2022/02/21 02:37:05;;;;;;;5.60;1.30;;;8.30;98.00;;;;;;5118274;28;20414;-44
2022/02/21 02:39:31;;;;;;;1.73;0.93;;;8.30;98.10;;;;;;5117180;28;20553;-45
2022/02/21 02:41:57;;;;;;;2.80;0.80;;;8.30;98.20;;;;;;5118477;28;20441;-45
2022/02/21 02:44:22;;;;;;;2.20;0.90;;;8.30;97.90;;;;;;5118136;28;20219;-45
2022/02/21 02:46:48;;;;;;;3.90;0.90;;;8.40;97.70;;;;;;5117477;28;20267;-45
2022/02/21 02:49:14;;;;;;;1.77;0.83;;;8.40;97.50;;;;;;5118231;28;20206;-45
2022/02/21 02:51:40;;;;;;;2.13;1.00;;;8.40;97.40;;;;;;5117347;28;20196;-47
2022/02/21 02:54:07;;;;;;;3.80;0.80;;;8.40;97.60;;;;;;5117998;28;20408;-43
2022/02/21 02:56:36;;;;;;;2.57;1.20;;;8.40;97.50;;;;;;5116892;28;20179;-44
2022/02/21 02:59:03;;;;;;;1.73;0.80;;;8.40;97.50;;;;;;5117520;28;20544;-45
2022/02/21 03:01:28;;;;;;;2.37;1.00;;;8.40;97.40;;;;;;5116606;28;20430;-45
2022/02/21 03:03:54;;;;;;;2.13;1.10;;;8.40;97.40;;;;;;5117751;28;20433;-45
2022/02/21 03:06:19;;;;;;;3.17;0.87;;;8.40;97.10;;;;;;5116613;28;20190;-45
2022/02/21 03:08:45;;;;;;;1.47;0.90;;;8.40;96.90;;;;;;5118215;28;20184;-45
2022/02/21 03:11:11;;;;;;;1.57;0.90;;;8.40;96.60;;;;;;5116513;28;20274;-45
2022/02/21 03:13:36;;;;;;;2.40;0.70;;;8.40;96.70;;;;;;5117955;28;20180;-45
2022/02/21 03:16:02;;;;;;;2.60;0.67;;;8.40;96.90;;;;;;5119421;28;20242;-45
2022/02/21 03:18:28;;;;;;;1.30;0.53;;;8.40;97.10;;;;;;5120514;28;20298;-45
2022/02/21 03:20:54;;;;;;;1.40;0.80;;;8.30;97.50;;;;;;5120437;28;20252;-45
2022/02/21 03:23:19;;;;;;;2.73;0.70;;;8.20;98.00;;;;;;5121651;28;20188;-45
2022/02/21 03:25:45;;;;;;;1.93;0.60;;;8.10;98.30;;;;;;5102751;28;20198;-45
2022/02/21 03:28:10;;;;;;;1.97;0.67;;;8.10;98.60;;;;;;5121681;28;20629;-45
2022/02/21 03:30:36;;;;;;;1.90;0.70;;;8.10;98.80;;;;;;5120561;28;20223;-43
2022/02/21 03:33:03;;;;;;;2.50;0.70;;;8.10;98.90;;;;;;5121386;28;20235;-45
2022/02/21 03:35:29;;;;;;;2.10;0.53;;;8.00;98.80;;;;;;5119766;28;20422;-44
2022/02/21 03:37:54;;;;;;;3.13;1.10;;;8.00;99.30;;;;;;5121869;28;20828;-44
2022/02/21 03:40:20;;;;;;;3.53;0.70;;;7.90;99.90;;;;;;5119835;28;20223;-44
2022/02/21 03:42:46;;;;;;;3.10;0.80;;;7.80;99.90;;;;;;5121694;28;20348;-45
2022/02/21 03:45:12;;;;;;;2.50;1.00;;;7.70;99.90;;;;;;5120375;28;20597;-44
2022/02/21 03:47:38;;;;;;;3.87;1.20;;;7.50;99.90;;;;;;5120386;28;20176;-44
2022/02/21 03:50:04;;;;;;;2.17;1.03;;;7.40;99.90;;;;;;5119920;28;20788;-44
2022/02/21 03:52:30;;;;;;;0.90;0.40;;;7.20;99.90;;;;;;5121598;28;20700;-44
2022/02/21 03:54:56;;;;;;;1.00;0.40;;;6.60;99.90;;;;;;5120362;28;20436;-44
2022/02/21 03:57:21;;;;;;;0.97;0.37;;;6.20;99.40;;;;;;5121383;28;20636;-44
2022/02/21 03:59:47;;;;;;;1.67;0.73;;;5.80;99.30;;;;;;5120507;28;20314;-44
2022/02/21 04:02:13;;;;;;;2.50;0.40;;;5.50;99.40;;;;;;5120919;28;20191;-44
2022/02/21 04:04:38;;;;;;;1.10;0.30;;;5.20;99.80;;;;;;5119275;28;20173;-44
2022/02/21 04:07:04;;;;;;;0.80;0.30;;;4.80;99.90;;;;;;5120413;28;20175;-44
2022/02/21 04:09:30;;;;;;;1.10;0.50;;;4.60;99.90;;;;;;5118844;28;20191;-44
2022/02/21 04:11:56;;;;;;;1.20;0.40;;;4.50;99.90;;;;;;5120334;28;20219;-44
2022/02/21 04:14:22;;;;;;;1.70;0.50;;;4.20;99.90;;;;;;5119727;28;20280;-44
2022/02/21 04:16:47;;;;;;;1.10;0.40;;;3.80;99.90;;;;;;5118884;28;20540;-44
2022/02/21 04:19:13;;;;;;;1.47;0.70;;;3.50;99.90;;;;;;5120550;28;20196;-44
2022/02/21 04:21:40;;;;;;;3.53;1.03;;;3.30;99.90;;;;;;5119268;28;20429;-45
2022/02/21 04:24:06;;;;;;;2.33;0.50;;;3.10;99.90;;;;;;5120402;28;20486;-44
2022/02/21 04:26:32;;;;;;;1.10;0.47;;;3.10;99.90;;;;;;5117838;28;20440;-45
2022/02/21 04:28:57;;;;;;;2.63;0.70;;;2.80;99.90;;;;;;5120561;28;20505;-44
2022/02/21 04:31:23;;;;;;;3.47;0.83;;;2.70;99.90;;;;;;5119244;28;20180;-44
2022/02/21 04:33:49;;;;;;;1.40;0.90;;;2.70;99.90;;;;;;5120056;28;20180;-44
2022/02/21 04:36:15;;;;;;;2.97;1.00;;;2.60;99.90;;;;;;5119603;28;20194;-44
2022/02/21 04:38:41;;;;;;;2.90;1.20;;;2.60;99.90;;;;;;5120073;28;20667;-44
2022/02/21 04:41:07;;;;;;;4.40;1.10;;;2.50;99.90;;;;;;5118230;28;20714;-44
2022/02/21 04:43:33;;;;;;;8.70;2.03;;;2.40;99.90;;;;;;5120005;28;20172;-45
2022/02/21 04:45:59;;;;;;;4.10;1.17;;;2.40;99.90;;;;;;5119652;28;20861;-45
2022/02/21 04:48:26;;;;;;;6.07;1.20;;;2.40;99.90;;;;;;5118885;28;20180;-44
2022/02/21 04:50:52;;;;;;;6.00;1.57;;;2.30;99.90;;;;;;5120126;28;20425;-44
2022/02/21 04:53:18;;;;;;;2.93;0.90;;;2.30;99.90;;;;;;5119373;28;20846;-44
2022/02/21 04:55:44;;;;;;;2.80;1.30;;;2.40;99.90;;;;;;5118546;28;20794;-44
2022/02/21 04:58:10;;;;;;;2.93;1.30;;;2.50;99.90;;;;;;5116376;28;20589;-44
2022/02/21 05:00:36;;;;;;;6.23;1.20;;;2.60;99.90;;;;;;5119720;28;20410;-44
2022/02/21 05:03:01;;;;;;;4.07;1.57;;;2.60;99.90;;;;;;5101122;28;20496;-47
2022/02/21 05:05:27;;;;;;;4.07;1.57;;;2.70;99.90;;;;;;5120621;28;20566;-47
2022/02/21 05:07:53;;;;;;;4.87;1.80;;;2.80;99.90;;;;;;5118768;28;20192;-47
2022/02/21 05:10:18;;;;;;;5.30;1.60;;;2.90;99.60;;;;;;5120409;28;20270;-47
2022/02/21 05:12:44;;;;;;;8.33;1.57;;;3.00;99.40;;;;;;5119097;28;20175;-47
2022/02/21 05:15:11;;;;;;;5.20;1.93;;;3.10;99.10;;;;;;5119902;28;20183;-47
2022/02/21 05:17:37;;;;;;;8.50;1.80;;;3.10;99.20;;;;;;5117565;28;20241;-47
2022/02/21 05:20:04;;;;;;;7.23;1.97;;;3.10;99.00;;;;;;5117181;28;20458;-48
2022/02/21 05:22:30;;;;;;;5.13;1.83;;;3.20;98.90;;;;;;5114787;28;20425;-48
2022/02/21 05:24:55;;;;;;;5.93;1.90;;;3.30;98.80;;;;;;5116838;28;20691;-48
2022/02/21 05:27:21;;;;;;;8.63;2.40;;;3.40;98.60;;;;;;5117139;28;20211;-48
2022/02/21 05:29:46;;;;;;;5.87;1.67;;;3.40;97.90;;;;;;5132427;27;20202;-48
2022/02/21 05:32:12;;;;;;;7.93;2.27;;;3.50;98.00;;;;;;5137466;27;20228;-48
2022/02/21 05:34:38;;;;;;;8.77;2.60;;;3.50;97.80;;;;;;5137483;27;20203;-48
2022/02/21 05:37:05;;;;;;;5.13;1.90;;;3.50;98.20;;;;;;5139226;27;20214;-48
2022/02/21 05:39:31;;;;;;;11.97;2.57;;;3.50;98.10;;;;;;5119108;27;20465;-48
2022/02/21 05:41:57;;;;;;;8.57;3.00;;;3.50;98.30;;;;;;5138690;27;20409;-48
2022/02/21 05:44:22;;;;;;;6.30;2.03;;;3.60;98.00;;;;;;5138323;27;20409;-48
2022/02/21 05:46:48;;;;;;;9.50;1.90;;;3.60;97.80;;;;;;5136280;27;20463;-48
2022/02/21 05:49:14;;;;;;;10.13;1.90;;;3.60;98.10;;;;;;5137177;27;20195;-48
2022/02/21 05:51:40;;;;;;;11.30;2.40;;;3.70;97.80;;;;;;5117540;27;20421;-48
2022/02/21 05:54:06;;;;;;;7.97;1.97;;;3.70;97.70;;;;;;5117088;27;20252;-48
2022/02/21 05:56:32;;;;;;;6.67;1.63;;;3.70;96.50;;;;;;5133670;27;20190;-48
2022/02/21 05:58:57;;;;;;;6.60;2.30;;;3.80;96.40;;;;;;5134985;27;20213;-48
2022/02/21 06:01:23;;;;;;;8.50;1.90;;;3.80;96.20;;;;;;5117689;27;20172;-48
2022/02/21 06:03:50;;;;;;;4.57;1.60;;;3.80;95.70;;;;;;5135266;27;20639;-48
2022/02/21 06:06:15;;;;;;;7.43;2.10;;;3.80;95.80;;;;;;5136745;27;20180;-48
2022/02/21 06:08:41;;;;;;;6.20;2.57;;;3.80;95.90;;;;;;5134461;27;20478;-48
2022/02/21 06:11:07;;;;;;;11.93;2.10;;;3.90;95.80;;;;;;5116154;27;20207;-48
2022/02/21 06:13:33;;;;;;;8.83;2.07;;;3.80;96.20;;;;;;5132928;27;20546;-48
2022/02/21 06:15:59;;;;;;;5.80;1.80;;;3.90;96.10;;;;;;5135657;27;20496;-47
2022/02/21 06:18:26;;;;;;;4.87;1.80;;;3.90;96.00;;;;;;5115492;27;20722;-47
2022/02/21 06:20:52;;;;;;;6.63;1.80;;;3.90;95.90;;;;;;5134236;27;20414;-48
2022/02/21 06:23:17;;;;;;;6.53;1.93;;;3.90;96.30;;;;;;5135739;27;20493;-48
2022/02/21 06:25:43;;;;;;;6.10;2.00;;;3.90;96.20;;;;;;5134870;27;20417;-47
2022/02/21 06:28:10;;;;;;;10.50;2.17;;;3.90;96.40;;;;;;5136055;27;20180;-48
2022/02/21 06:30:36;;;;;;;7.03;1.97;;;3.80;96.70;;;;;;5113462;27;20512;-48
2022/02/21 06:33:01;;;;;;;9.57;2.00;;;3.80;96.60;;;;;;5134754;27;20543;-47
2022/02/21 06:35:27;;;;;;;8.40;2.00;;;3.80;96.60;;;;;;5133978;27;20523;-47
2022/02/21 06:37:54;;;;;;;10.70;2.37;;;3.80;96.40;;;;;;5134799;27;20183;-48
2022/02/21 06:40:21;;;;;;;8.07;1.63;;;3.80;96.30;;;;;;5132287;27;20291;-47
2022/02/21 06:42:48;;;;;;;9.73;2.50;;;3.80;96.50;;;;;;5131577;27;20822;-47
2022/02/21 06:45:14;;;;;;;5.80;1.67;;;3.80;96.20;;;;;;5130317;27;20837;-47
2022/02/21 06:47:41;;;;;;;7.97;2.93;;;3.80;95.70;;;;;;5132913;27;20428;-47
2022/02/21 06:50:08;;;;;;;7.00;2.23;;;3.80;95.70;;;;;;5131260;27;20573;-48
2022/02/21 06:52:33;;;;;;;6.73;2.23;;;3.90;95.20;;;;;;5132635;27;20977;-47
2022/02/21 06:55:00;;;;;;;5.37;3.13;;;3.90;95.30;;;;;;5132655;27;20664;-47
2022/02/21 06:57:26;;;;;;;5.43;1.67;;;3.90;93.80;;;;;;5129436;28;20445;-48
2022/02/21 06:59:51;;;;;;;7.30;1.83;;;3.90;93.10;;;;;;5131324;28;20742;-48
2022/02/21 07:02:17;;;;;;;10.20;2.90;;;3.90;93.20;;;;;;5128340;28;20575;-47
2022/02/21 07:04:43;;;;;;;12.30;2.47;;;3.80;93.00;;;;;;5131521;28;20742;-48
2022/02/21 07:07:08;;;;;;;7.27;2.00;;;3.80;92.30;;;;;;5114214;28;20466;-47
2022/02/21 07:09:34;;;;;;;8.83;2.40;;;3.90;91.70;;;;;;5133604;28;20171;-48
2022/02/21 07:11:59;;;;;;;5.57;2.00;;;3.80;91.20;;;;;;5132441;28;20187;-48
2022/02/21 07:14:25;;;;;;;7.70;2.07;;;3.80;91.40;;;;;;5132346;28;20195;-48
2022/02/21 07:16:51;;;;;;;10.33;2.70;;;3.80;91.90;;;;;;5132646;28;20187;-48
2022/02/21 07:19:17;;;;;;;5.50;1.60;;;3.70;92.20;;;;;;5115674;28;20303;-48
2022/02/21 07:21:43;;;;;;;7.47;2.73;;;3.70;92.50;;;;;;5112125;28;20886;-48
2022/02/21 07:24:09;;;;;;;12.77;3.10;;;3.80;92.30;;;;;;5113665;28;20178;-48
2022/02/21 07:26:35;;;;;;;10.40;2.10;;;3.90;92.50;;;;;;5113044;28;20430;-47
2022/02/21 07:29:01;;;;;;;11.63;2.40;;;4.20;92.10;;;;;;5134713;28;20452;-47
2022/02/21 07:31:27;;;;;;;7.87;1.93;;;4.60;90.90;;;;;;5133882;27;20268;-47
2022/02/21 07:33:52;;;;;;;5.93;2.80;;;4.90;90.50;;;;;;5135330;28;20417;-47
2022/02/21 07:36:18;;;;;;;9.97;2.70;;;5.20;89.10;;;;;;5133122;28;20581;-47
2022/02/21 07:38:44;;;;;;;11.40;2.77;;;5.30;88.10;;;;;;5134239;28;20597;-47
2022/02/21 07:41:10;;;;;;;8.67;2.40;;;5.40;86.50;;;;;;5133483;28;20558;-47
2022/02/21 07:43:35;;;;;;;9.83;2.63;;;5.40;86.30;;;;;;5137047;28;20803;-47
2022/02/21 07:46:01;;;;;;;6.70;1.97;;;5.50;85.90;;;;;;5133862;28;20642;-47
2022/02/21 07:48:26;;;;;;;8.33;2.97;;;5.40;85.00;;;;;;5115993;28;20203;-47
2022/02/21 07:50:54;;;;;;;10.60;2.00;;;5.70;87.40;;;;;;5133308;28;20207;-47
2022/02/21 07:53:20;;;;;;;10.60;2.23;;;6.00;89.60;;;;;;5134309;27;20538;-47
2022/02/21 07:55:47;;;;;;;8.83;2.43;;;6.00;85.50;;;;;;5132567;27;20421;-47
2022/02/21 07:58:13;;;;;;;11.87;3.33;;;5.60;83.90;;;;;;5135703;28;20420;-47
2022/02/21 08:00:39;;;;;;;7.97;2.10;;;5.50;84.50;;;;;;5135118;27;20413;-47
2022/02/21 08:03:04;;;;;;;10.83;2.60;;;5.60;85.70;;;;;;5139365;27;20463;-48
2022/02/21 08:05:30;;;;;;;10.40;2.20;;;5.80;85.60;;;;;;5138757;27;20175;-47
2022/02/21 08:07:56;;;;;;;11.33;2.80;;;5.90;84.80;;;;;;5139930;27;20225;-47
2022/02/21 08:10:22;;;;;;;5.87;2.70;;;5.90;84.20;;;;;;5140781;27;20218;-48
2022/02/21 08:12:47;;;;;;;8.93;2.30;;;6.10;83.90;;;;;;5138050;27;20456;-47
2022/02/21 08:15:13;;;;;;;8.57;1.97;;;6.30;83.30;;;;;;5139212;27;20470;-48
2022/02/21 08:17:44;;;;;;;7.30;2.30;;;6.40;82.30;;;;;;5138220;27;20195;-48
2022/02/21 08:20:11;;;;;;;12.20;2.50;;;6.90;81.60;;;;;;5139956;27;20204;-48
2022/02/21 08:22:37;;;;;;;7.80;2.33;;;7.00;80.30;;;;;;5136230;27;20629;-47
2022/02/21 08:25:04;;;;;;;7.07;2.47;;;7.20;79.60;;;;;;5139309;27;20408;-48
2022/02/21 08:27:30;;;;;;;6.43;2.37;;;7.00;78.50;;;;;;5137901;27;20203;-48
2022/02/21 08:29:55;;;;;;;6.30;2.30;;;7.10;78.60;;;;;;5139578;27;20451;-48
2022/02/21 08:32:21;;;;;;;6.23;2.17;;;6.90;78.70;;;;;;5138152;27;20249;-48
2022/02/21 08:34:47;;;;;;;8.40;2.17;;;7.10;78.20;;;;;;5135813;27;20188;-48
2022/02/21 08:37:13;;;;;;;12.70;2.83;;;7.20;78.20;;;;;;5138796;27;20255;-50
2022/02/21 08:39:40;;;;;;;8.30;2.50;;;7.50;77.90;;;;;;5137626;27;20215;-48
2022/02/21 08:42:06;;;;;;;9.53;3.03;;;7.90;76.30;;;;;;5140046;27;20413;-47
2022/02/21 08:44:31;;;;;;;9.43;3.13;;;8.20;75.00;;;;;;5138621;27;20597;-47
2022/02/21 08:46:58;;;;;;;9.53;2.23;;;8.00;74.90;;;;;;5139262;27;20413;-42
2022/02/21 08:49:23;;;;;;;10.63;2.67;;;7.50;75.60;;;;;;5139574;27;20532;-42
2022/02/21 08:51:49;;;;;;;7.43;2.33;;;7.00;78.40;;;;;;5139940;27;20417;-41
2022/02/21 08:54:19;;;;;;;9.00;2.30;;;6.80;80.40;;;;;;5138860;27;20591;-42
2022/02/21 08:56:45;;;;;;;16.07;3.20;;;6.80;81.50;;;;;;5140154;27;20176;-42
2022/02/21 08:59:11;;;;;;;9.20;2.47;;;7.00;82.20;;;;;;5137713;27;20464;-40
2022/02/21 09:01:39;;;;;;;14.10;2.90;;;7.10;81.80;;;;;;5139120;27;21016;-41
2022/02/21 09:04:07;;;;;;;11.73;2.60;;;7.00;82.50;;;;;;5137815;27;20422;-43
2022/02/21 09:06:33;;;;;;;9.97;2.57;;;6.50;84.60;;;;;;5121234;27;20413;-40
2022/02/21 09:08:58;;;;;;;7.37;2.40;;;6.20;86.60;;;;;;5138819;27;20805;-41
2022/02/21 09:11:24;;;;;;;9.30;2.50;;;6.00;88.20;;;;;;5135503;27;20278;-41
2022/02/21 09:13:50;;;;;;;9.23;2.83;;;6.30;88.50;;;;;;5132510;27;20267;-43
2022/02/21 09:16:15;;;;;;;6.10;1.93;;;6.80;86.60;;;;;;5135683;27;20423;-44
2022/02/21 09:18:41;;;;;;;10.70;2.83;;;7.60;84.90;;;;;;5134230;27;20211;-40
2022/02/21 09:21:07;;;;;;;10.67;3.60;;;8.40;82.20;;;;;;5135863;27;20207;-41
2022/02/21 09:23:33;;;;;;;7.93;2.23;;;8.80;80.10;;;;;;5135009;27;20176;-41
2022/02/21 09:25:58;;;;;;;9.73;3.67;;;8.60;76.90;;;;;;5137801;27;20180;-42
2022/02/21 09:28:24;;;;;;;10.20;2.90;;;8.90;77.40;;;;;;5138452;27;20211;-43
2022/02/21 09:30:53;;;;;;;8.90;2.50;;;9.30;75.20;;;;;;5119296;27;20241;-42
2022/02/21 09:33:22;;;;;;;8.13;2.50;;;10.20;71.40;;;;;;5138989;27;20220;-43
2022/02/21 09:35:48;;;;;;;10.77;3.23;;;9.90;71.80;;;;;;5136694;27;20421;-41
2022/02/21 09:38:14;;;;;;;10.43;2.53;;;8.80;74.10;;;;;;5139450;27;20770;-44
2022/02/21 09:40:41;;;;;;;13.47;3.43;;;8.00;78.10;;;;;;5137522;27;20507;-42
2022/02/21 09:43:08;;;;;;;8.53;2.73;;;7.80;79.60;;;;;;5135966;27;20286;-40
2022/02/21 09:45:35;;;;;;;6.60;2.20;;;7.70;79.20;;;;;;5135873;27;20942;-40
2022/02/21 09:48:02;;;;;;;8.97;2.77;;;7.40;76.70;;;;;;5138315;27;20431;-43
2022/02/21 09:50:27;;;;;;;10.53;2.83;;;6.90;79.40;;;;;;5136856;27;20425;-41
2022/02/21 09:53:01;;;;;;;8.90;2.53;;;7.20;79.80;;;;;;5136209;27;20420;-43
2022/02/21 09:55:28;;;;;;;11.37;2.57;;;7.40;78.20;;;;;;5135768;27;20278;-45
2022/02/21 09:57:54;;;;;;;10.70;3.00;;;8.00;76.00;;;;;;5120766;27;20675;-42
2022/02/21 10:00:20;;;;;;;5.77;2.30;;;9.00;75.00;;;;;;5137381;27;20518;-43
2022/02/21 10:02:47;;;;;;;10.53;2.40;;;9.10;73.90;;;;;;5139453;27;20551;-43
2022/02/21 10:05:14;;;;;;;7.00;2.10;;;9.50;72.40;;;;;;5136676;27;20283;-44
2022/02/21 10:07:40;;;;;;;9.73;3.27;;;9.20;72.70;;;;;;5139279;27;20425;-43
2022/02/21 10:10:08;;;;;;;13.83;2.63;;;9.00;72.30;;;;;;5135403;27;20459;-44
2022/02/21 10:12:48;;;;;;;8.30;1.90;;;8.40;73.30;;;;;;5136820;27;20421;-43
2022/02/21 10:15:15;;;;;;;8.93;2.80;;;8.10;73.90;;;;;;5137044;27;20429;-42
2022/02/21 10:17:40;;;;;;;9.53;2.53;;;8.50;73.60;;;;;;5137382;27;20409;-45
2022/02/21 10:20:07;;;;;;;9.43;2.10;;;8.90;72.00;;;;;;5117675;27;20741;-43
2022/02/21 10:22:33;;;;;;;6.33;2.03;;;8.90;71.90;;;;;;5137288;27;20430;-43
2022/02/21 10:24:59;;;;;;;6.97;2.30;;;8.90;69.10;;;;;;5136578;27;20490;-42
2022/02/21 10:27:29;;;;;;;7.27;2.60;;;8.90;69.80;;;;;;5138961;27;20405;-45
2022/02/21 10:30:04;;;;;;;4.60;2.00;;;9.20;69.00;;;;;;5137747;27;20444;-46
2022/02/21 10:32:34;;;;;;;5.33;1.90;;;9.20;67.50;;;;;;5136654;27;20458;-43
2022/02/21 10:35:22;;;;;;;5.03;2.07;;;8.80;66.70;;;;;;5135548;27;20772;-42
2022/02/21 10:37:49;;;;;;;5.80;2.10;;;8.90;66.20;;;;;;5136605;27;20422;-44
2022/02/21 10:40:20;;;;;;;9.10;2.30;;;9.30;66.70;;;;;;5133890;27;20484;-43
2022/02/21 10:43:10;;;;;;;5.73;1.53;;;9.50;65.60;;;;;;5134796;27;20433;-42
2022/02/21 10:45:36;;;;;;;8.43;2.20;;;9.70;61.80;;;;;;5135170;27;20422;-42
2022/02/21 10:48:16;;;;;;;3.50;1.80;;;9.40;61.40;;;;;;5135183;27;20595;-44
2022/02/21 10:51:13;;;;;;;5.03;2.40;;;10.10;61.70;;;;;;5132656;27;20423;-42
2022/02/21 10:53:44;;;;;;;5.00;1.80;;;11.00;58.70;;;;;;5087844;27;20448;-43
2022/02/21 10:56:11;;;;;;;5.80;2.77;;;10.90;57.70;;;;;;5137526;27;20416;-41
2022/02/21 10:58:38;;;;;;;3.33;1.83;;;11.80;57.20;;;;;;5133690;27;20493;-44
2022/02/21 11:01:05;;;;;;;6.17;2.33;;;11.80;54.90;;;;;;5121641;28;20448;-43
2022/02/21 11:03:31;;;;;;;5.67;2.17;;;11.50;53.60;;;;;;5132271;27;20419;-43
2022/02/21 11:06:02;;;;;;;6.27;1.97;;;11.00;53.70;;;;;;5135414;28;20412;-44
2022/02/21 11:08:29;;;;;;;6.63;1.87;;;11.70;54.70;;;;;;5131614;27;20811;-44
2022/02/21 11:11:00;;;;;;;6.17;2.20;;;11.90;53.50;;;;;;5135912;27;20416;-46
2022/02/21 11:13:28;;;;;;;5.67;2.10;;;12.30;53.10;;;;;;5136741;27;20507;-44
2022/02/21 11:15:53;;;;;;;5.80;2.37;;;12.40;51.90;;;;;;5135542;28;20700;-45
2022/02/21 11:18:20;;;;;;;7.40;2.00;;;11.30;52.10;;;;;;5134614;27;20406;-41
2022/02/21 11:20:46;;;;;;;5.50;2.00;;;10.20;53.90;;;;;;5132663;27;20487;-43
2022/02/21 11:23:12;;;;;;;5.73;2.27;;;9.40;55.80;;;;;;5132976;27;20417;-42
2022/02/21 11:26:11;;;;;;;4.00;1.90;;;8.90;57.70;;;;;;5133929;28;20440;-43
2022/02/21 11:28:57;;;;;;;5.10;1.60;;;8.60;58.40;;;;;;5135469;28;20240;-41
2022/02/21 11:31:30;;;;;;;8.43;2.00;;;7.90;58.40;;;;;;5132109;27;20428;-45
2022/02/21 11:34:00;;;;;;;6.43;2.00;;;7.60;60.20;;;;;;5112851;28;20433;-42
2022/02/21 11:36:27;;;;;;;5.33;1.70;;;7.90;60.40;;;;;;5133376;27;20528;-45
2022/02/21 11:38:55;;;;;;;8.87;2.20;;;8.20;59.80;;;;;;5136956;27;20475;-42
2022/02/21 11:41:33;;;;;;;4.03;1.53;;;8.30;59.50;;;;;;5136309;27;20425;-43
2022/02/21 11:44:21;;;;;;;5.23;2.00;;;9.10;59.30;;;;;;5139883;27;20470;-41
2022/02/21 11:46:46;;;;;;;4.10;1.73;;;10.50;55.80;;;;;;5122027;27;20954;-43
2022/02/21 11:49:38;;;;;;;5.10;1.57;;;10.80;53.90;;;;;;5138261;27;20905;-43
2022/02/21 11:52:27;;;;;;;4.70;1.67;;;10.70;53.10;;;;;;5135998;27;20721;-42
2022/02/21 11:54:54;;;;;;;4.20;1.60;;;9.70;53.40;;;;;;5120060;27;20452;-42
2022/02/21 11:57:27;;;;;;;3.60;1.70;;;9.80;53.20;;;;;;5122450;27;20414;-41
2022/02/21 11:59:53;;;;;;;6.33;1.53;;;10.00;51.20;;;;;;5139609;27;20475;-44
2022/02/21 12:02:25;;;;;;;6.43;2.23;;;10.70;51.20;;;;;;5141366;27;20439;-41
2022/02/21 12:04:56;;;;;;;5.50;1.73;;;11.10;51.10;;;;;;5121891;27;20425;-42
2022/02/21 12:07:37;;;;;;;4.83;1.70;;;10.80;50.90;;;;;;5139144;27;20182;-43
2022/02/21 12:10:24;;;;;;;8.23;1.77;;;9.60;51.10;;;;;;5137950;27;20409;-43
2022/02/21 12:13:02;;;;;;;6.03;1.77;;;8.80;52.10;;;;;;5136947;27;20512;-41
2022/02/21 12:15:32;;;;;;;9.30;1.67;;;8.20;53.90;;;;;;5122233;27;20418;-42
2022/02/21 12:18:30;;;;;;;3.57;1.40;;;7.90;54.90;;;;;;5138103;27;20428;-42
2022/02/21 12:21:29;;;;;;;3.60;1.43;;;7.40;55.90;;;;;;5137309;27;20436;-40
2022/02/21 12:24:00;;;;;;;4.80;1.50;;;7.20;57.00;;;;;;5134854;27;20727;-44
2022/02/21 12:26:31;;;;;;;5.20;1.60;;;7.10;57.70;;;;;;5134977;27;20676;-43
2022/02/21 12:29:19;;;;;;;6.40;1.93;;;7.20;57.40;;;;;;5131144;27;20437;-42
2022/02/21 12:32:02;;;;;;;4.70;1.70;;;7.20;57.80;;;;;;5114714;28;20469;-44
2022/02/21 12:34:30;;;;;;;3.20;1.50;;;7.00;57.30;;;;;;5117341;28;20624;-43
2022/02/21 12:37:06;;;;;;;5.17;1.53;;;6.90;58.50;;;;;;5117258;27;20422;-43
2022/02/21 12:39:36;;;;;;;9.80;3.20;;;6.80;59.40;;;;;;5143975;27;20476;-44
2022/02/21 12:42:04;;;;;;;4.40;2.27;;;6.80;60.50;;;;;;5136354;27;20423;-44
2022/02/21 12:44:29;;;;;;;6.53;1.77;;;6.90;61.80;;;;;;5136504;27;20421;-43
2022/02/21 12:46:57;;;;;;;6.77;1.87;;;6.80;61.70;;;;;;5134235;27;20822;-44
2022/02/21 12:49:25;;;;;;;6.23;1.57;;;6.70;61.90;;;;;;5120353;27;20203;-43
2022/02/21 12:51:57;;;;;;;6.50;1.43;;;6.80;62.60;;;;;;5114169;28;20430;-43
2022/02/21 12:54:23;;;;;;;6.93;1.27;;;6.70;62.10;;;;;;5117062;28;20410;-42
2022/02/21 12:56:59;;;;;;;3.43;1.40;;;6.60;62.60;;;;;;5115791;28;20430;-44